Aviation Digital Data Service (ADDS)

Output produced by TAFs form (1025 UTC 02 October 2014)
found at http://aviationweather.gov/adds/tafs/
 
KHOB 020520Z 0206/0306 26009KT P6SM SKC 
     FM021300 33011G17KT P6SM SKC 
     FM030200 02006KT P6SM SKC